sensor_id;sensor_type;location;lat;lon;timestamp;pressure;altitude;pressure_sealevel;temperature;humidity
9525;BME280;15940;48.734;9.112;2023-04-27T00:01:39;96636.19;;;7.16;71.25
9525;BME280;15940;48.734;9.112;2023-04-27T00:04:06;96637.81;;;7.23;70.03
9525;BME280;15940;48.734;9.112;2023-04-27T00:06:33;96640.38;;;7.17;70.04
9525;BME280;15940;48.734;9.112;2023-04-27T00:09:00;96629.94;;;7.10;69.74
9525;BME280;15940;48.734;9.112;2023-04-27T00:11:28;96632.38;;;7.08;69.72
9525;BME280;15940;48.734;9.112;2023-04-27T00:13:55;96633.09;;;7.08;70.23
9525;BME280;15940;48.734;9.112;2023-04-27T00:16:22;96629.94;;;7.10;70.49
9525;BME280;15940;48.734;9.112;2023-04-27T00:18:50;96632.56;;;7.19;70.29
9525;BME280;15940;48.734;9.112;2023-04-27T00:21:17;96626.16;;;7.16;70.22
9525;BME280;15940;48.734;9.112;2023-04-27T00:23:44;96623.41;;;7.26;71.04
9525;BME280;15940;48.734;9.112;2023-04-27T00:26:11;96633.72;;;7.27;70.14
9525;BME280;15940;48.734;9.112;2023-04-27T00:28:38;96624.41;;;7.28;71.34
9525;BME280;15940;48.734;9.112;2023-04-27T00:31:05;96623.78;;;7.33;71.55
9525;BME280;15940;48.734;9.112;2023-04-27T00:33:32;96611.59;;;7.38;71.55
9525;BME280;15940;48.734;9.112;2023-04-27T00:36:01;96621.63;;;7.37;70.94
9525;BME280;15940;48.734;9.112;2023-04-27T00:38:28;96618.78;;;7.41;70.83
9525;BME280;15940;48.734;9.112;2023-04-27T00:41:00;96609.66;;;7.38;69.69
9525;BME280;15940;48.734;9.112;2023-04-27T00:43:27;96612.72;;;7.31;68.46
9525;BME280;15940;48.734;9.112;2023-04-27T00:45:54;96605.34;;;7.17;68.77
9525;BME280;15940;48.734;9.112;2023-04-27T00:48:21;96611.03;;;7.19;69.57
9525;BME280;15940;48.734;9.112;2023-04-27T00:50:48;96611.84;;;7.10;69.13
9525;BME280;15940;48.734;9.112;2023-04-27T00:53:17;96602.47;;;7.06;69.48
9525;BME280;15940;48.734;9.112;2023-04-27T00:55:44;96606.38;;;7.20;71.08
9525;BME280;15940;48.734;9.112;2023-04-27T00:58:11;96601.19;;;7.16;69.80
9525;BME280;15940;48.734;9.112;2023-04-27T01:00:38;96605.94;;;7.21;70.58
9525;BME280;15940;48.734;9.112;2023-04-27T01:03:06;96611.50;;;7.18;70.53
9525;BME280;15940;48.734;9.112;2023-04-27T01:05:33;96605.34;;;7.17;70.28
9525;BME280;15940;48.734;9.112;2023-04-27T01:08:02;96604.06;;;7.12;70.32
9525;BME280;15940;48.734;9.112;2023-04-27T01:10:30;96603.84;;;7.01;71.12
9525;BME280;15940;48.734;9.112;2023-04-27T01:12:57;96608.78;;;7.03;71.10
9525;BME280;15940;48.734;9.112;2023-04-27T01:15:24;96614.31;;;6.99;71.15
9525;BME280;15940;48.734;9.112;2023-04-27T01:17:57;96611.94;;;7.01;70.57
9525;BME280;15940;48.734;9.112;2023-04-27T01:20:24;96607.19;;;6.96;71.24
9525;BME280;15940;48.734;9.112;2023-04-27T01:22:55;96610.59;;;6.97;70.26
9525;BME280;15940;48.734;9.112;2023-04-27T01:25:24;96621.09;;;6.95;71.33
9525;BME280;15940;48.734;9.112;2023-04-27T01:27:51;96615.38;;;7.02;72.06
9525;BME280;15940;48.734;9.112;2023-04-27T01:30:19;96612.50;;;7.05;72.56
9525;BME280;15940;48.734;9.112;2023-04-27T01:32:47;96614.25;;;7.08;71.89
9525;BME280;15940;48.734;9.112;2023-04-27T01:35:14;96615.94;;;7.06;72.15
9525;BME280;15940;48.734;9.112;2023-04-27T01:37:41;96612.31;;;7.09;72.02
9525;BME280;15940;48.734;9.112;2023-04-27T01:40:09;96610.00;;;7.16;71.77
9525;BME280;15940;48.734;9.112;2023-04-27T01:42:37;96610.59;;;7.21;72.15
9525;BME280;15940;48.734;9.112;2023-04-27T01:45:06;96595.31;;;7.18;72.62
9525;BME280;15940;48.734;9.112;2023-04-27T01:47:33;96609.84;;;7.20;72.80
9525;BME280;15940;48.734;9.112;2023-04-27T01:50:00;96607.97;;;7.26;71.37
9525;BME280;15940;48.734;9.112;2023-04-27T01:52:27;96604.97;;;7.09;71.22
9525;BME280;15940;48.734;9.112;2023-04-27T01:54:54;96608.19;;;6.99;72.42
9525;BME280;15940;48.734;9.112;2023-04-27T01:57:21;96612.84;;;6.98;73.03
9525;BME280;15940;48.734;9.112;2023-04-27T01:59:50;96620.19;;;6.98;74.19
9525;BME280;15940;48.734;9.112;2023-04-27T02:02:17;96616.84;;;7.03;73.23
9525;BME280;15940;48.734;9.112;2023-04-27T02:04:44;96615.31;;;6.87;72.89
9525;BME280;15940;48.734;9.112;2023-04-27T02:07:11;96618.81;;;7.02;72.92
9525;BME280;15940;48.734;9.112;2023-04-27T02:09:38;96623.44;;;7.02;72.59
9525;BME280;15940;48.734;9.112;2023-04-27T02:12:05;96617.88;;;7.05;73.87
9525;BME280;15940;48.734;9.112;2023-04-27T02:14:32;96618.28;;;7.13;73.38
9525;BME280;15940;48.734;9.112;2023-04-27T02:17:00;96619.75;;;7.14;73.56
9525;BME280;15940;48.734;9.112;2023-04-27T02:19:27;96624.19;;;7.02;73.31
9525;BME280;15940;48.734;9.112;2023-04-27T02:21:54;96626.16;;;7.02;73.82
9525;BME280;15940;48.734;9.112;2023-04-27T02:24:21;96628.25;;;6.98;73.79
9525;BME280;15940;48.734;9.112;2023-04-27T02:26:48;96636.06;;;6.96;74.62
9525;BME280;15940;48.734;9.112;2023-04-27T02:29:15;96629.28;;;7.00;73.39
9525;BME280;15940;48.734;9.112;2023-04-27T02:31:43;96637.13;;;6.89;74.13
9525;BME280;15940;48.734;9.112;2023-04-27T02:34:11;96635.78;;;6.94;73.53
9525;BME280;15940;48.734;9.112;2023-04-27T02:36:38;96629.72;;;6.84;73.47
9525;BME280;15940;48.734;9.112;2023-04-27T02:39:05;96637.94;;;6.80;73.43
9525;BME280;15940;48.734;9.112;2023-04-27T02:41:32;96643.44;;;6.86;74.15
9525;BME280;15940;48.734;9.112;2023-04-27T02:43:59;96634.63;;;6.85;74.17
9525;BME280;15940;48.734;9.112;2023-04-27T02:46:25;96640.78;;;7.01;74.15
9525;BME280;15940;48.734;9.112;2023-04-27T02:48:52;96643.78;;;7.03;73.83
9525;BME280;15940;48.734;9.112;2023-04-27T02:51:21;96646.47;;;7.03;74.34
9525;BME280;15940;48.734;9.112;2023-04-27T02:53:48;96636.91;;;7.02;73.65
9525;BME280;15940;48.734;9.112;2023-04-27T02:56:15;96646.94;;;7.01;74.23
9525;BME280;15940;48.734;9.112;2023-04-27T02:58:42;96640.97;;;6.97;74.50
9525;BME280;15940;48.734;9.112;2023-04-27T03:01:09;96642.47;;;6.98;74.60
9525;BME280;15940;48.734;9.112;2023-04-27T03:03:36;96645.16;;;6.98;74.13
9525;BME280;15940;48.734;9.112;2023-04-27T03:06:04;96638.50;;;7.08;73.91
9525;BME280;15940;48.734;9.112;2023-04-27T03:08:33;96639.69;;;7.07;73.85
9525;BME280;15940;48.734;9.112;2023-04-27T03:10:59;96633.19;;;6.99;74.57
9525;BME280;15940;48.734;9.112;2023-04-27T03:13:26;96636.44;;;7.03;74.28
9525;BME280;15940;48.734;9.112;2023-04-27T03:15:53;96638.03;;;7.10;73.76
9525;BME280;15940;48.734;9.112;2023-04-27T03:18:20;96637.94;;;7.04;73.65
9525;BME280;15940;48.734;9.112;2023-04-27T03:20:47;96633.34;;;6.96;73.03
9525;BME280;15940;48.734;9.112;2023-04-27T03:23:14;96631.34;;;6.81;73.28
9525;BME280;15940;48.734;9.112;2023-04-27T03:25:42;96638.88;;;6.77;74.69
9525;BME280;15940;48.734;9.112;2023-04-27T03:28:09;96644.53;;;6.79;75.47
9525;BME280;15940;48.734;9.112;2023-04-27T03:30:38;96643.66;;;6.97;74.84
9525;BME280;15940;48.734;9.112;2023-04-27T03:33:05;96644.69;;;7.00;74.81
9525;BME280;15940;48.734;9.112;2023-04-27T03:35:33;96632.72;;;7.01;73.43
9525;BME280;15940;48.734;9.112;2023-04-27T03:37:59;96637.72;;;6.93;74.26
9525;BME280;15940;48.734;9.112;2023-04-27T03:40:26;96646.81;;;6.96;74.34
9525;BME280;15940;48.734;9.112;2023-04-27T03:42:55;96638.75;;;6.96;74.28
9525;BME280;15940;48.734;9.112;2023-04-27T03:45:21;96640.34;;;7.02;75.13
9525;BME280;15940;48.734;9.112;2023-04-27T03:47:49;96635.88;;;6.99;74.88
9525;BME280;15940;48.734;9.112;2023-04-27T03:50:16;96649.44;;;7.05;74.93
9525;BME280;15940;48.734;9.112;2023-04-27T03:52:43;96646.75;;;7.05;75.34
9525;BME280;15940;48.734;9.112;2023-04-27T03:55:10;96643.47;;;7.01;75.29
9525;BME280;15940;48.734;9.112;2023-04-27T03:57:37;96642.13;;;7.05;75.45
9525;BME280;15940;48.734;9.112;2023-04-27T04:00:07;96645.91;;;6.99;75.12
9525;BME280;15940;48.734;9.112;2023-04-27T04:02:36;96652.94;;;6.96;75.78
9525;BME280;15940;48.734;9.112;2023-04-27T04:05:04;96653.81;;;7.02;75.57
9525;BME280;15940;48.734;9.112;2023-04-27T04:07:31;96646.06;;;6.95;76.26
9525;BME280;15940;48.734;9.112;2023-04-27T04:09:58;96649.63;;;7.01;75.27
9525;BME280;15940;48.734;9.112;2023-04-27T04:12:24;96650.94;;;6.82;75.26
9525;BME280;15940;48.734;9.112;2023-04-27T04:14:51;96653.94;;;6.84;76.15
9525;BME280;15940;48.734;9.112;2023-04-27T04:17:20;96649.56;;;6.86;76.40
9525;BME280;15940;48.734;9.112;2023-04-27T04:19:46;96652.28;;;6.86;76.22
9525;BME280;15940;48.734;9.112;2023-04-27T04:22:13;96643.78;;;6.79;76.94
9525;BME280;15940;48.734;9.112;2023-04-27T04:24:40;96647.97;;;6.80;75.98
9525;BME280;15940;48.734;9.112;2023-04-27T04:27:08;96659.38;;;6.75;76.90
9525;BME280;15940;48.734;9.112;2023-04-27T04:29:35;96654.09;;;6.80;76.76
9525;BME280;15940;48.734;9.112;2023-04-27T04:32:03;96657.19;;;6.88;76.85
9525;BME280;15940;48.734;9.112;2023-04-27T04:34:33;96658.97;;;6.91;75.59
9525;BME280;15940;48.734;9.112;2023-04-27T04:37:00;96657.09;;;6.82;76.23
9525;BME280;15940;48.734;9.112;2023-04-27T04:39:29;96657.88;;;6.98;76.61
9525;BME280;15940;48.734;9.112;2023-04-27T04:41:56;96668.03;;;7.03;76.33
9525;BME280;15940;48.734;9.112;2023-04-27T04:44:23;96667.78;;;7.15;75.14
9525;BME280;15940;48.734;9.112;2023-04-27T04:46:50;96671.22;;;7.16;74.96
9525;BME280;15940;48.734;9.112;2023-04-27T04:49:17;96666.00;;;7.12;75.77
9525;BME280;15940;48.734;9.112;2023-04-27T04:51:46;96668.41;;;7.10;75.67
9525;BME280;15940;48.734;9.112;2023-04-27T04:54:12;96666.34;;;7.05;75.59
9525;BME280;15940;48.734;9.112;2023-04-27T04:56:39;96661.91;;;7.02;74.65
9525;BME280;15940;48.734;9.112;2023-04-27T04:59:07;96662.91;;;7.05;75.71
9525;BME280;15940;48.734;9.112;2023-04-27T05:01:34;96671.28;;;7.07;74.95
9525;BME280;15940;48.734;9.112;2023-04-27T05:04:01;96662.00;;;7.08;75.34
9525;BME280;15940;48.734;9.112;2023-04-27T05:06:28;96671.69;;;7.14;74.88
9525;BME280;15940;48.734;9.112;2023-04-27T05:08:56;96668.72;;;7.12;74.61
9525;BME280;15940;48.734;9.112;2023-04-27T05:11:23;96669.66;;;7.24;75.05
9525;BME280;15940;48.734;9.112;2023-04-27T05:13:50;96667.81;;;7.30;73.54
9525;BME280;15940;48.734;9.112;2023-04-27T05:16:17;96665.16;;;7.45;73.52
9525;BME280;15940;48.734;9.112;2023-04-27T05:18:43;96664.88;;;7.43;72.84
9525;BME280;15940;48.734;9.112;2023-04-27T05:21:15;96658.53;;;7.46;72.70
9525;BME280;15940;48.734;9.112;2023-04-27T05:23:45;96660.53;;;7.60;72.00
9525;BME280;15940;48.734;9.112;2023-04-27T05:26:16;96663.22;;;7.60;71.37
9525;BME280;15940;48.734;9.112;2023-04-27T05:28:43;96665.38;;;7.71;72.14
9525;BME280;15940;48.734;9.112;2023-04-27T05:31:11;96679.66;;;7.62;70.56
9525;BME280;15940;48.734;9.112;2023-04-27T05:33:38;96658.66;;;7.52;69.67
9525;BME280;15940;48.734;9.112;2023-04-27T05:36:06;96668.84;;;7.48;69.61
9525;BME280;15940;48.734;9.112;2023-04-27T05:38:33;96676.22;;;7.62;70.58
9525;BME280;15940;48.734;9.112;2023-04-27T05:41:04;96678.47;;;7.63;68.86
9525;BME280;15940;48.734;9.112;2023-04-27T05:43:33;96682.75;;;7.70;70.18
9525;BME280;15940;48.734;9.112;2023-04-27T05:46:02;96683.50;;;7.85;69.60
9525;BME280;15940;48.734;9.112;2023-04-27T05:48:30;96686.94;;;7.86;68.19
9525;BME280;15940;48.734;9.112;2023-04-27T05:51:01;96694.66;;;7.93;67.18
9525;BME280;15940;48.734;9.112;2023-04-27T05:53:29;96689.91;;;8.02;66.95
9525;BME280;15940;48.734;9.112;2023-04-27T05:55:57;96693.34;;;8.18;68.31
9525;BME280;15940;48.734;9.112;2023-04-27T05:58:26;96685.97;;;8.33;67.96
9525;BME280;15940;48.734;9.112;2023-04-27T06:00:54;96687.38;;;8.28;65.91
9525;BME280;15940;48.734;9.112;2023-04-27T06:03:21;96690.47;;;8.36;65.02
9525;BME280;15940;48.734;9.112;2023-04-27T06:05:53;96699.19;;;8.31;65.18
9525;BME280;15940;48.734;9.112;2023-04-27T06:08:20;96689.06;;;8.41;67.40
9525;BME280;15940;48.734;9.112;2023-04-27T06:10:47;96703.56;;;8.58;66.75
9525;BME280;15940;48.734;9.112;2023-04-27T06:13:15;96693.78;;;8.61;62.93
9525;BME280;15940;48.734;9.112;2023-04-27T06:15:43;96703.91;;;8.66;63.82
9525;BME280;15940;48.734;9.112;2023-04-27T06:18:11;96697.53;;;8.83;63.63
9525;BME280;15940;48.734;9.112;2023-04-27T06:20:38;96692.53;;;8.97;62.59
9525;BME280;15940;48.734;9.112;2023-04-27T06:23:06;96696.41;;;9.10;62.50
9525;BME280;15940;48.734;9.112;2023-04-27T06:25:33;96705.00;;;9.29;63.28
9525;BME280;15940;48.734;9.112;2023-04-27T06:28:03;96708.84;;;9.43;62.77
9525;BME280;15940;48.734;9.112;2023-04-27T06:30:30;96717.34;;;9.36;60.35
9525;BME280;15940;48.734;9.112;2023-04-27T06:32:57;96704.75;;;9.53;62.36
9525;BME280;15940;48.734;9.112;2023-04-27T06:35:26;96706.66;;;9.67;62.43
9525;BME280;15940;48.734;9.112;2023-04-27T06:37:53;96713.38;;;9.78;60.60
9525;BME280;15940;48.734;9.112;2023-04-27T06:40:24;96713.84;;;10.02;60.61
9525;BME280;15940;48.734;9.112;2023-04-27T06:42:51;96709.63;;;9.95;59.46
9525;BME280;15940;48.734;9.112;2023-04-27T06:45:18;96712.34;;;9.95;60.16
9525;BME280;15940;48.734;9.112;2023-04-27T06:47:45;96714.69;;;10.14;59.89
9525;BME280;15940;48.734;9.112;2023-04-27T06:50:13;96713.34;;;10.24;59.41
9525;BME280;15940;48.734;9.112;2023-04-27T06:52:42;96715.13;;;10.33;57.23
9525;BME280;15940;48.734;9.112;2023-04-27T06:55:09;96716.44;;;10.43;56.97
9525;BME280;15940;48.734;9.112;2023-04-27T06:57:36;96723.59;;;10.46;54.70
9525;BME280;15940;48.734;9.112;2023-04-27T07:00:04;96728.59;;;10.53;56.20
9525;BME280;15940;48.734;9.112;2023-04-27T07:02:31;96728.03;;;10.80;54.29
9525;BME280;15940;48.734;9.112;2023-04-27T07:04:58;96729.69;;;11.09;55.24
9525;BME280;15940;48.734;9.112;2023-04-27T07:07:25;96725.06;;;11.21;53.27
9525;BME280;15940;48.734;9.112;2023-04-27T07:09:53;96726.81;;;11.30;52.83
9525;BME280;15940;48.734;9.112;2023-04-27T07:12:21;96720.44;;;11.38;53.11
9525;BME280;15940;48.734;9.112;2023-04-27T07:14:48;96722.97;;;11.59;53.06
9525;BME280;15940;48.734;9.112;2023-04-27T07:17:16;96725.66;;;11.53;51.72
9525;BME280;15940;48.734;9.112;2023-04-27T07:19:43;96722.06;;;11.84;50.79
9525;BME280;15940;48.734;9.112;2023-04-27T07:22:09;96720.16;;;12.35;51.46
9525;BME280;15940;48.734;9.112;2023-04-27T07:24:36;96714.44;;;12.78;51.26
9525;BME280;15940;48.734;9.112;2023-04-27T07:27:04;96722.50;;;13.28;49.91
9525;BME280;15940;48.734;9.112;2023-04-27T07:29:31;96721.28;;;13.29;48.95
9525;BME280;15940;48.734;9.112;2023-04-27T07:31:58;96722.22;;;13.37;48.23
9525;BME280;15940;48.734;9.112;2023-04-27T07:34:26;96721.28;;;13.24;49.39
9525;BME280;15940;48.734;9.112;2023-04-27T07:36:53;96711.81;;;13.47;47.59
9525;BME280;15940;48.734;9.112;2023-04-27T07:39:20;96713.59;;;13.80;49.57
9525;BME280;15940;48.734;9.112;2023-04-27T07:41:47;96706.66;;;13.85;48.92
9525;BME280;15940;48.734;9.112;2023-04-27T07:44:16;96713.28;;;13.95;49.32
9525;BME280;15940;48.734;9.112;2023-04-27T07:46:44;96719.81;;;14.16;46.84
9525;BME280;15940;48.734;9.112;2023-04-27T07:49:11;96712.28;;;14.28;48.17
9525;BME280;15940;48.734;9.112;2023-04-27T07:51:39;96711.88;;;14.54;49.26
9525;BME280;15940;48.734;9.112;2023-04-27T07:54:06;96709.97;;;14.73;48.02
9525;BME280;15940;48.734;9.112;2023-04-27T07:56:33;96708.78;;;14.93;46.26
9525;BME280;15940;48.734;9.112;2023-04-27T07:59:00;96710.72;;;14.98;46.20
9525;BME280;15940;48.734;9.112;2023-04-27T08:01:29;96700.69;;;15.06;47.23
9525;BME280;15940;48.734;9.112;2023-04-27T08:03:56;96706.66;;;15.29;46.78
9525;BME280;15940;48.734;9.112;2023-04-27T08:06:23;96706.22;;;15.44;46.24
9525;BME280;15940;48.734;9.112;2023-04-27T08:08:53;96704.66;;;15.30;46.12
9525;BME280;15940;48.734;9.112;2023-04-27T08:11:22;96706.47;;;15.46;46.70
9525;BME280;15940;48.734;9.112;2023-04-27T08:13:49;96708.09;;;15.55;47.24
9525;BME280;15940;48.734;9.112;2023-04-27T08:16:16;96703.75;;;15.84;45.36
9525;BME280;15940;48.734;9.112;2023-04-27T08:18:44;96703.75;;;15.84;44.18
9525;BME280;15940;48.734;9.112;2023-04-27T08:21:11;96696.72;;;15.88;43.98
9525;BME280;15940;48.734;9.112;2023-04-27T08:23:38;96697.91;;;16.12;45.47
9525;BME280;15940;48.734;9.112;2023-04-27T08:26:05;96697.66;;;16.10;44.97
9525;BME280;15940;48.734;9.112;2023-04-27T08:28:32;96699.56;;;16.15;44.19
9525;BME280;15940;48.734;9.112;2023-04-27T08:30:59;96691.25;;;15.88;45.22
9525;BME280;15940;48.734;9.112;2023-04-27T08:33:26;96681.56;;;16.06;44.80
9525;BME280;15940;48.734;9.112;2023-04-27T08:35:54;96692.00;;;16.40;43.85
9525;BME280;15940;48.734;9.112;2023-04-27T08:38:21;96689.66;;;16.31;42.66
9525;BME280;15940;48.734;9.112;2023-04-27T08:40:48;96687.69;;;16.12;42.46
9525;BME280;15940;48.734;9.112;2023-04-27T08:43:15;96682.13;;;16.50;42.82
9525;BME280;15940;48.734;9.112;2023-04-27T08:45:48;96681.97;;;16.74;44.08
9525;BME280;15940;48.734;9.112;2023-04-27T08:48:16;96679.34;;;16.95;45.43
9525;BME280;15940;48.734;9.112;2023-04-27T08:50:44;96678.59;;;16.95;43.55
9525;BME280;15940;48.734;9.112;2023-04-27T08:53:19;96674.69;;;17.30;42.30
9525;BME280;15940;48.734;9.112;2023-04-27T08:55:47;96674.31;;;17.60;43.27
9525;BME280;15940;48.734;9.112;2023-04-27T08:58:14;96673.78;;;17.75;38.12
9525;BME280;15940;48.734;9.112;2023-04-27T09:00:42;96676.47;;;17.88;41.32
9525;BME280;15940;48.734;9.112;2023-04-27T09:03:21;96674.28;;;17.86;38.70
9525;BME280;15940;48.734;9.112;2023-04-27T09:05:48;96678.22;;;17.51;38.49
9525;BME280;15940;48.734;9.112;2023-04-27T09:08:15;96673.47;;;17.65;38.87
9525;BME280;15940;48.734;9.112;2023-04-27T09:10:44;96676.03;;;17.50;38.48
9525;BME280;15940;48.734;9.112;2023-04-27T09:13:12;96670.88;;;17.93;39.39
9525;BME280;15940;48.734;9.112;2023-04-27T09:15:43;96672.16;;;18.13;37.33
9525;BME280;15940;48.734;9.112;2023-04-27T09:18:15;96674.84;;;18.26;35.81
9525;BME280;15940;48.734;9.112;2023-04-27T09:20:43;96681.72;;;18.41;38.71
9525;BME280;15940;48.734;9.112;2023-04-27T09:23:21;96682.63;;;18.64;38.74
9525;BME280;15940;48.734;9.112;2023-04-27T09:25:52;96680.66;;;18.02;35.94
9525;BME280;15940;48.734;9.112;2023-04-27T09:28:20;96686.22;;;17.76;38.02
9525;BME280;15940;48.734;9.112;2023-04-27T09:30:55;96678.94;;;17.78;34.77
9525;BME280;15940;48.734;9.112;2023-04-27T09:33:24;96677.31;;;18.17;38.68
9525;BME280;15940;48.734;9.112;2023-04-27T09:35:51;96677.53;;;18.40;40.49
9525;BME280;15940;48.734;9.112;2023-04-27T09:38:19;96672.16;;;18.34;35.60
9525;BME280;15940;48.734;9.112;2023-04-27T09:40:48;96671.25;;;18.11;36.03
9525;BME280;15940;48.734;9.112;2023-04-27T09:43:17;96679.75;;;17.39;36.01
9525;BME280;15940;48.734;9.112;2023-04-27T09:45:44;96687.25;;;17.25;35.82
9525;BME280;15940;48.734;9.112;2023-04-27T09:48:11;96685.72;;;17.51;38.68
9525;BME280;15940;48.734;9.112;2023-04-27T09:50:40;96677.28;;;17.75;37.12
9525;BME280;15940;48.734;9.112;2023-04-27T09:53:10;96673.84;;;18.16;37.24
9525;BME280;15940;48.734;9.112;2023-04-27T09:55:42;96670.81;;;18.27;39.47
9525;BME280;15940;48.734;9.112;2023-04-27T09:58:37;96670.69;;;18.33;38.04
9525;BME280;15940;48.734;9.112;2023-04-27T10:01:14;96668.47;;;17.42;37.76
9525;BME280;15940;48.734;9.112;2023-04-27T10:03:56;96681.75;;;16.72;36.08
9525;BME280;15940;48.734;9.112;2023-04-27T10:06:57;96677.91;;;16.49;40.87
9525;BME280;15940;48.734;9.112;2023-04-27T10:09:25;96665.41;;;16.53;37.63
9525;BME280;15940;48.734;9.112;2023-04-27T10:11:54;96683.59;;;16.51;39.78
9525;BME280;15940;48.734;9.112;2023-04-27T10:14:23;96678.06;;;16.24;37.49
9525;BME280;15940;48.734;9.112;2023-04-27T10:16:54;96678.50;;;15.78;37.93
9525;BME280;15940;48.734;9.112;2023-04-27T10:19:23;96684.06;;;16.36;36.62
9525;BME280;15940;48.734;9.112;2023-04-27T10:21:55;96674.53;;;16.88;40.10
9525;BME280;15940;48.734;9.112;2023-04-27T10:24:34;96679.75;;;16.86;37.84
9525;BME280;15940;48.734;9.112;2023-04-27T10:27:03;96682.91;;;16.77;39.27
9525;BME280;15940;48.734;9.112;2023-04-27T10:29:37;96677.56;;;16.71;40.93
9525;BME280;15940;48.734;9.112;2023-04-27T10:32:06;96690.34;;;16.63;44.00
9525;BME280;15940;48.734;9.112;2023-04-27T10:34:34;96686.53;;;16.40;43.38
9525;BME280;15940;48.734;9.112;2023-04-27T10:37:07;96682.22;;;16.12;44.40
9525;BME280;15940;48.734;9.112;2023-04-27T10:39:36;96667.59;;;15.78;44.31
9525;BME280;15940;48.734;9.112;2023-04-27T10:42:05;96672.06;;;15.56;46.46
9525;BME280;15940;48.734;9.112;2023-04-27T10:44:34;96669.63;;;15.53;47.39
9525;BME280;15940;48.734;9.112;2023-04-27T10:47:13;96674.69;;;15.24;42.86
9525;BME280;15940;48.734;9.112;2023-04-27T10:49:41;96659.53;;;15.29;44.54
9525;BME280;15940;48.734;9.112;2023-04-27T10:52:08;96659.31;;;15.27;43.33
9525;BME280;15940;48.734;9.112;2023-04-27T10:54:35;96655.69;;;15.37;44.52
9525;BME280;15940;48.734;9.112;2023-04-27T10:57:05;96661.81;;;15.62;45.22
9525;BME280;15940;48.734;9.112;2023-04-27T10:59:34;96662.28;;;15.66;43.40
9525;BME280;15940;48.734;9.112;2023-04-27T11:02:03;96665.16;;;15.74;41.54
9525;BME280;15940;48.734;9.112;2023-04-27T11:04:37;96665.13;;;16.25;42.29
9525;BME280;15940;48.734;9.112;2023-04-27T11:07:05;96667.59;;;16.55;40.90
9525;BME280;15940;48.734;9.112;2023-04-27T11:09:34;96658.72;;;16.94;40.30
9525;BME280;15940;48.734;9.112;2023-04-27T11:12:06;96657.44;;;17.22;39.42
9525;BME280;15940;48.734;9.112;2023-04-27T11:14:34;96655.53;;;17.30;38.36
9525;BME280;15940;48.734;9.112;2023-04-27T11:17:03;96653.28;;;17.41;38.09
9525;BME280;15940;48.734;9.112;2023-04-27T11:19:30;96650.66;;;17.49;37.95
9525;BME280;15940;48.734;9.112;2023-04-27T11:22:04;96653.47;;;17.57;37.55
9525;BME280;15940;48.734;9.112;2023-04-27T11:24:31;96644.78;;;17.45;38.14
9525;BME280;15940;48.734;9.112;2023-04-27T11:26:58;96652.22;;;16.97;40.82
9525;BME280;15940;48.734;9.112;2023-04-27T11:29:25;96653.34;;;16.75;38.93
9525;BME280;15940;48.734;9.112;2023-04-27T11:32:04;96650.50;;;16.68;39.62
9525;BME280;15940;48.734;9.112;2023-04-27T11:34:32;96646.19;;;16.85;40.34
9525;BME280;15940;48.734;9.112;2023-04-27T11:37:02;96642.72;;;16.85;41.96
9525;BME280;15940;48.734;9.112;2023-04-27T11:39:33;96652.53;;;17.07;43.53
9525;BME280;15940;48.734;9.112;2023-04-27T11:42:15;96657.97;;;17.20;41.33
9525;BME280;15940;48.734;9.112;2023-04-27T11:44:50;96658.91;;;17.36;41.51
9525;BME280;15940;48.734;9.112;2023-04-27T11:47:19;96662.81;;;17.14;39.39
9525;BME280;15940;48.734;9.112;2023-04-27T11:49:48;96664.19;;;16.94;41.29
9525;BME280;15940;48.734;9.112;2023-04-27T11:52:15;96658.59;;;16.87;41.69
9525;BME280;15940;48.734;9.112;2023-04-27T11:54:48;96653.69;;;16.98;43.46
9525;BME280;15940;48.734;9.112;2023-04-27T11:57:18;96656.19;;;16.83;40.11
9525;BME280;15940;48.734;9.112;2023-04-27T11:59:49;96650.72;;;16.70;41.21
9525;BME280;15940;48.734;9.112;2023-04-27T12:02:18;96654.81;;;17.03;42.76
9525;BME280;15940;48.734;9.112;2023-04-27T12:04:46;96652.47;;;17.33;40.99
9525;BME280;15940;48.734;9.112;2023-04-27T12:07:14;96646.50;;;18.03;42.91
9525;BME280;15940;48.734;9.112;2023-04-27T12:09:41;96633.94;;;18.57;40.00
9525;BME280;15940;48.734;9.112;2023-04-27T12:12:08;96635.31;;;19.00;40.69
9525;BME280;15940;48.734;9.112;2023-04-27T12:14:35;96635.44;;;18.87;39.53
9525;BME280;15940;48.734;9.112;2023-04-27T12:17:03;96635.63;;;18.60;40.44
9525;BME280;15940;48.734;9.112;2023-04-27T12:19:32;96636.44;;;18.26;39.08
9525;BME280;15940;48.734;9.112;2023-04-27T12:21:59;96624.00;;;18.25;40.10
9525;BME280;15940;48.734;9.112;2023-04-27T12:24:26;96626.38;;;18.01;38.58
9525;BME280;15940;48.734;9.112;2023-04-27T12:26:53;96624.22;;;17.86;40.72
9525;BME280;15940;48.734;9.112;2023-04-27T12:29:20;96630.34;;;17.79;40.94
9525;BME280;15940;48.734;9.112;2023-04-27T12:31:47;96630.19;;;17.63;40.81
9525;BME280;15940;48.734;9.112;2023-04-27T12:34:14;96631.19;;;17.39;41.64
9525;BME280;15940;48.734;9.112;2023-04-27T12:36:43;96629.69;;;17.52;42.62
9525;BME280;15940;48.734;9.112;2023-04-27T12:39:16;96630.09;;;17.56;39.90
9525;BME280;15940;48.734;9.112;2023-04-27T12:41:45;96626.94;;;17.52;39.97
9525;BME280;15940;48.734;9.112;2023-04-27T12:44:12;96638.03;;;17.33;37.35
9525;BME280;15940;48.734;9.112;2023-04-27T12:46:40;96630.44;;;17.39;41.15
9525;BME280;15940;48.734;9.112;2023-04-27T12:49:08;96625.41;;;17.30;43.13
9525;BME280;15940;48.734;9.112;2023-04-27T12:51:36;96619.59;;;17.47;41.66
9525;BME280;15940;48.734;9.112;2023-04-27T12:54:05;96615.88;;;17.57;41.95
9525;BME280;15940;48.734;9.112;2023-04-27T12:56:33;96620.50;;;17.62;41.82
9525;BME280;15940;48.734;9.112;2023-04-27T12:59:00;96615.13;;;17.57;40.34
9525;BME280;15940;48.734;9.112;2023-04-27T13:01:27;96610.72;;;17.54;43.80
9525;BME280;15940;48.734;9.112;2023-04-27T13:03:59;96609.19;;;17.45;42.59
9525;BME280;15940;48.734;9.112;2023-04-27T13:06:27;96614.59;;;17.58;42.22
9525;BME280;15940;48.734;9.112;2023-04-27T13:08:55;96602.72;;;17.56;43.12
9525;BME280;15940;48.734;9.112;2023-04-27T13:11:23;96607.63;;;17.70;42.94
9525;BME280;15940;48.734;9.112;2023-04-27T13:13:51;96598.94;;;17.80;43.25
9525;BME280;15940;48.734;9.112;2023-04-27T13:16:19;96600.56;;;17.75;45.49
9525;BME280;15940;48.734;9.112;2023-04-27T13:18:49;96603.91;;;17.68;41.81
9525;BME280;15940;48.734;9.112;2023-04-27T13:21:16;96608.34;;;17.71;41.36
9525;BME280;15940;48.734;9.112;2023-04-27T13:23:43;96610.78;;;17.75;42.40